createdAt,value
2023-05-14T00:00:13.034Z,10.87
2023-05-14T00:01:13.084Z,10.86
2023-05-14T00:02:12.982Z,10.82
2023-05-14T00:03:13.143Z,10.79
2023-05-14T00:04:12.915Z,10.75
2023-05-14T00:05:12.935Z,10.71
2023-05-14T00:06:12.845Z,10.76
2023-05-14T00:07:12.816Z,10.76
2023-05-14T00:08:12.786Z,10.82
2023-05-14T00:09:12.754Z,10.82
2023-05-14T00:10:12.722Z,10.76
2023-05-14T00:11:12.737Z,10.78
2023-05-14T00:12:12.640Z,10.74
2023-05-14T00:13:12.615Z,10.86
2023-05-14T00:14:12.591Z,10.76
2023-05-14T00:15:12.591Z,10.84
2023-05-14T00:16:12.654Z,10.87
2023-05-14T00:17:12.601Z,10.87
2023-05-14T00:18:12.521Z,10.81
2023-05-14T00:19:12.456Z,10.76
2023-05-14T00:20:12.387Z,10.82
2023-05-14T00:21:12.349Z,10.76
2023-05-14T00:22:12.409Z,10.75
2023-05-14T00:23:12.350Z,10.72
2023-05-14T00:24:12.260Z,10.87
2023-05-14T00:25:12.242Z,10.89
2023-05-14T00:26:12.182Z,10.86
2023-05-14T00:27:12.203Z,10.82
2023-05-14T00:28:12.121Z,10.84
2023-05-14T00:29:12.101Z,10.82
2023-05-14T00:30:12.063Z,10.78
2023-05-14T00:31:12.016Z,10.76
2023-05-14T00:32:12.072Z,10.75
2023-05-14T00:33:11.965Z,10.81
2023-05-14T00:34:11.926Z,10.75
2023-05-14T00:35:11.889Z,10.71
2023-05-14T00:36:11.865Z,10.72
2023-05-14T00:37:11.826Z,10.76
2023-05-14T00:38:11.886Z,10.78
2023-05-14T00:39:11.845Z,10.76
2023-05-14T00:40:11.781Z,10.72
2023-05-14T00:41:11.726Z,10.68
2023-05-14T00:42:11.657Z,10.67
2023-05-14T00:43:11.625Z,10.69
2023-05-14T00:44:11.595Z,10.63
2023-05-14T00:45:11.687Z,10.63
2023-05-14T00:46:11.548Z,10.69
2023-05-14T00:47:11.501Z,10.68
2023-05-14T00:48:11.479Z,10.60
2023-05-14T00:49:11.427Z,10.60
2023-05-14T00:50:11.404Z,10.54
2023-05-14T00:51:11.445Z,10.63
2023-05-14T00:52:11.324Z,10.53
2023-05-14T00:53:11.293Z,10.60
2023-05-14T00:54:11.265Z,10.57
2023-05-14T00:55:11.328Z,10.56
2023-05-14T00:56:11.280Z,10.54
2023-05-14T00:57:11.164Z,10.49
2023-05-14T00:58:11.156Z,10.48
2023-05-14T00:59:11.109Z,10.46
2023-05-14T01:00:11.074Z,10.42
2023-05-14T01:01:11.064Z,10.35
2023-05-14T01:02:11.069Z,10.30
2023-05-14T01:03:11.065Z,10.30
2023-05-14T01:04:10.944Z,10.33
2023-05-14T01:05:10.899Z,10.33
2023-05-14T01:06:10.861Z,10.25
2023-05-14T01:07:10.901Z,10.33
2023-05-14T01:08:10.803Z,10.28
2023-05-14T01:09:10.770Z,10.30
2023-05-14T01:10:10.733Z,10.30
2023-05-14T01:11:10.698Z,10.23
2023-05-14T01:12:10.689Z,10.12
2023-05-14T01:13:10.708Z,10.15
2023-05-14T01:14:10.601Z,10.13
2023-05-14T01:15:10.564Z,10.20
2023-05-14T01:16:10.659Z,10.22
2023-05-14T01:17:10.501Z,10.23
2023-05-14T01:18:10.531Z,10.12
2023-05-14T01:19:10.551Z,10.20
2023-05-14T01:20:10.424Z,10.10
2023-05-14T01:21:10.362Z,10.19
2023-05-14T01:22:10.328Z,10.15
2023-05-14T01:23:10.298Z,10.13
2023-05-14T01:24:10.377Z,10.01
2023-05-14T01:25:10.241Z,10.02
2023-05-14T01:26:10.206Z,9.99
2023-05-14T01:27:10.171Z,10.04
2023-05-14T01:28:10.135Z,9.98
2023-05-14T01:29:10.170Z,10.04
2023-05-14T01:30:10.178Z,10.04
2023-05-14T01:31:10.041Z,9.97
2023-05-14T01:32:10.078Z,9.95
2023-05-14T01:33:09.976Z,9.97
2023-05-14T01:34:09.937Z,9.87
2023-05-14T01:35:09.902Z,9.92
2023-05-14T01:36:09.925Z,9.91
2023-05-14T01:37:09.828Z,9.80
2023-05-14T01:38:09.794Z,9.84
2023-05-14T01:39:09.770Z,9.87
2023-05-14T01:40:09.750Z,9.77
2023-05-14T01:41:09.720Z,9.84
2023-05-14T01:42:09.709Z,9.76
2023-05-14T01:43:09.659Z,9.76
2023-05-14T01:44:09.595Z,9.74
2023-05-14T01:45:09.560Z,9.74
2023-05-14T01:46:09.546Z,9.77
2023-05-14T01:47:09.548Z,9.76
2023-05-14T01:48:09.501Z,9.73
2023-05-14T01:49:09.429Z,9.73
2023-05-14T01:50:09.404Z,9.74
2023-05-14T01:51:09.361Z,9.72
2023-05-14T01:52:09.410Z,9.74
2023-05-14T01:53:09.298Z,9.73
2023-05-14T01:54:09.264Z,9.74
2023-05-14T01:55:09.234Z,9.72
2023-05-14T01:56:09.193Z,9.61
2023-05-14T01:57:09.160Z,9.66
2023-05-14T01:58:09.187Z,9.66
2023-05-14T01:59:09.155Z,9.55
2023-05-14T02:00:09.055Z,9.56
2023-05-14T02:01:09.062Z,9.48
2023-05-14T02:02:08.996Z,9.46
2023-05-14T02:03:09.026Z,9.46
2023-05-14T02:04:09.178Z,9.40
2023-05-14T02:05:08.900Z,9.29
2023-05-14T02:06:08.863Z,9.36
2023-05-14T02:07:08.818Z,9.32
2023-05-14T02:08:08.784Z,9.32
2023-05-14T02:09:08.775Z,9.31
2023-05-14T02:10:08.772Z,9.26
2023-05-14T02:11:08.681Z,9.31
2023-05-14T02:12:08.672Z,9.26
2023-05-14T02:13:08.641Z,9.23
2023-05-14T02:14:08.602Z,9.23
2023-05-14T02:15:08.559Z,9.23
2023-05-14T02:16:08.608Z,9.29
2023-05-14T02:17:08.484Z,9.34
2023-05-14T02:18:08.512Z,9.28
2023-05-14T02:19:08.584Z,9.32
2023-05-14T02:20:08.406Z,9.29
2023-05-14T02:21:08.390Z,9.32
2023-05-14T02:22:08.379Z,9.26
2023-05-14T02:23:08.293Z,9.28
2023-05-14T02:24:08.254Z,9.39
2023-05-14T02:25:08.219Z,9.36
2023-05-14T02:26:08.186Z,9.26
2023-05-14T02:27:08.228Z,9.23
2023-05-14T02:28:08.124Z,9.26
2023-05-14T02:29:08.100Z,9.22
2023-05-14T02:30:08.067Z,9.26
2023-05-14T02:31:08.171Z,9.22
2023-05-14T02:32:08.010Z,9.21
2023-05-14T02:33:08.055Z,9.21
2023-05-14T02:34:07.928Z,9.18
2023-05-14T02:35:07.884Z,9.13
2023-05-14T02:36:07.853Z,9.16
2023-05-14T02:37:07.884Z,9.18
2023-05-14T02:38:07.786Z,9.16
2023-05-14T02:39:07.746Z,9.23
2023-05-14T02:40:07.724Z,9.11
2023-05-14T02:41:07.697Z,9.11
2023-05-14T02:42:07.709Z,9.10
2023-05-14T02:43:07.616Z,9.14
2023-05-14T02:44:07.591Z,9.06
2023-05-14T02:45:07.552Z,9.10
2023-05-14T02:46:07.528Z,9.10
2023-05-14T02:47:07.609Z,8.99
2023-05-14T02:48:07.555Z,9.03
2023-05-14T02:49:07.427Z,9.00
2023-05-14T02:50:07.427Z,9.02
2023-05-14T02:51:07.349Z,8.97
2023-05-14T02:52:07.371Z,9.03
2023-05-14T02:53:07.276Z,9.03
2023-05-14T02:54:07.252Z,9.03
2023-05-14T02:55:07.209Z,8.99
2023-05-14T02:56:07.175Z,8.95
2023-05-14T02:57:07.141Z,9.04
2023-05-14T02:58:07.156Z,9.02
2023-05-14T02:59:07.066Z,9.04
2023-05-14T03:00:07.041Z,8.97
2023-05-14T03:01:07.126Z,9.02
2023-05-14T03:02:07.016Z,8.92
2023-05-14T03:03:07.002Z,8.92
2023-05-14T03:04:06.955Z,8.97
2023-05-14T03:05:06.896Z,8.99
2023-05-14T03:06:06.849Z,9.00
2023-05-14T03:07:06.804Z,8.99
2023-05-14T03:08:06.792Z,9.02
2023-05-14T03:09:06.796Z,8.94
2023-05-14T03:10:06.708Z,8.99
2023-05-14T03:11:06.661Z,8.87
2023-05-14T03:12:06.744Z,9.02
2023-05-14T03:13:06.602Z,8.91
2023-05-14T03:14:06.657Z,8.91
2023-05-14T03:15:06.553Z,8.94
2023-05-14T03:16:06.517Z,8.88
2023-05-14T03:17:06.490Z,8.82
2023-05-14T03:18:06.492Z,8.88
2023-05-14T03:19:06.425Z,8.71
2023-05-14T03:20:06.422Z,8.74
2023-05-14T03:21:06.410Z,8.73
2023-05-14T03:22:06.291Z,8.74
2023-05-14T03:23:06.272Z,8.73
2023-05-14T03:24:06.257Z,8.78
2023-05-14T03:25:06.192Z,8.70
2023-05-14T03:26:06.226Z,8.81
2023-05-14T03:27:06.152Z,8.69
2023-05-14T03:28:06.116Z,8.70
2023-05-14T03:29:06.051Z,8.74
2023-05-14T03:30:06.048Z,8.79
2023-05-14T03:31:06.095Z,8.73
2023-05-14T03:32:05.956Z,8.76
2023-05-14T03:33:05.993Z,8.71
2023-05-14T03:34:05.899Z,8.76
2023-05-14T03:35:05.872Z,8.71
2023-05-14T03:36:05.826Z,8.73
2023-05-14T03:37:05.957Z,8.82
2023-05-14T03:38:05.766Z,8.74
2023-05-14T03:39:05.750Z,8.76
2023-05-14T03:40:05.677Z,8.73
2023-05-14T03:41:05.668Z,8.70
2023-05-14T03:42:05.704Z,8.81
2023-05-14T03:43:05.578Z,8.91
2023-05-14T03:44:05.541Z,8.88
2023-05-14T03:45:05.520Z,8.89
2023-05-14T03:46:05.487Z,9.02
2023-05-14T03:47:05.548Z,8.92
2023-05-14T03:48:05.555Z,8.92
2023-05-14T03:49:05.396Z,9.02
2023-05-14T03:50:05.357Z,8.95
2023-05-14T03:51:05.334Z,9.13
2023-05-14T03:52:05.313Z,9.14
2023-05-14T03:53:05.314Z,9.14
2023-05-14T03:54:05.218Z,9.19
2023-05-14T03:55:05.169Z,9.28
2023-05-14T03:56:05.161Z,9.36
2023-05-14T03:57:05.127Z,9.34
2023-05-14T03:58:12.216Z,9.44
2023-05-14T03:59:05.043Z,9.43
2023-05-14T04:00:05.004Z,9.54
2023-05-14T04:01:04.975Z,9.51
2023-05-14T04:02:04.934Z,9.61
2023-05-14T04:03:05.076Z,9.74
2023-05-14T04:04:05.027Z,9.69
2023-05-14T04:05:04.828Z,9.86
2023-05-14T04:06:04.798Z,9.94
2023-05-14T04:07:04.761Z,10.05
2023-05-14T04:08:04.727Z,10.40
2023-05-14T04:09:04.750Z,10.84
2023-05-14T04:10:04.912Z,11.55
2023-05-14T04:11:04.635Z,12.27
2023-05-14T04:12:04.623Z,13.01
2023-05-14T04:13:04.563Z,13.63
2023-05-14T04:14:04.588Z,14.20
2023-05-14T04:15:04.539Z,14.68
2023-05-14T04:16:04.529Z,15.17
2023-05-14T04:17:04.443Z,15.49
2023-05-14T04:18:04.474Z,15.72
2023-05-14T04:19:04.421Z,15.86
2023-05-14T04:20:04.416Z,16.10
2023-05-14T04:21:04.297Z,15.83
2023-05-14T04:22:04.286Z,15.31
2023-05-14T04:23:04.236Z,15.04
2023-05-14T04:24:04.223Z,14.79
2023-05-14T04:25:04.229Z,14.43
2023-05-14T04:26:04.151Z,14.36
2023-05-14T04:27:04.111Z,14.22
2023-05-14T04:28:04.125Z,14.26
2023-05-14T04:29:04.048Z,14.47
2023-05-14T04:30:04.086Z,14.65
2023-05-14T04:31:03.987Z,14.65
2023-05-14T04:32:04.036Z,14.44
2023-05-14T04:33:03.995Z,14.40
2023-05-14T04:34:03.903Z,14.18
2023-05-14T04:35:03.919Z,13.95
2023-05-14T04:36:03.831Z,13.72
2023-05-14T04:37:03.798Z,13.63
2023-05-14T04:38:03.788Z,13.49
2023-05-14T04:39:03.736Z,13.41
2023-05-14T04:40:03.760Z,13.23
2023-05-14T04:41:03.727Z,13.28
2023-05-14T04:42:03.644Z,13.22
2023-05-14T04:43:03.603Z,13.27
2023-05-14T04:44:03.625Z,13.19
2023-05-14T04:45:03.556Z,13.09
2023-05-14T04:46:03.560Z,13.04
2023-05-14T04:47:03.545Z,12.98
2023-05-14T04:48:03.501Z,12.93
2023-05-14T04:49:03.420Z,12.90
2023-05-14T04:50:03.404Z,12.90
2023-05-14T04:51:05.630Z,12.87
2023-05-14T04:52:03.320Z,12.93
2023-05-14T04:53:03.350Z,12.95
2023-05-14T04:54:03.288Z,12.90
2023-05-14T04:55:03.240Z,12.91
2023-05-14T04:56:03.207Z,12.95
2023-05-14T04:57:03.205Z,12.91
2023-05-14T04:58:03.192Z,12.94
2023-05-14T04:59:03.104Z,13.09
2023-05-14T05:00:03.159Z,13.33
2023-05-14T05:01:03.079Z,13.46
2023-05-14T05:02:03.009Z,13.65
2023-05-14T05:03:03.030Z,13.87
2023-05-14T05:04:03.014Z,14.41
2023-05-14T05:05:02.926Z,15.02
2023-05-14T05:06:02.968Z,15.64
2023-05-14T05:07:02.864Z,16.01
2023-05-14T05:08:02.829Z,16.29
2023-05-14T05:09:02.805Z,16.31
2023-05-14T05:10:02.854Z,16.35
2023-05-14T05:11:02.787Z,16.28
2023-05-14T05:12:02.726Z,16.31
2023-05-14T05:13:02.681Z,16.49
2023-05-14T05:14:02.664Z,16.79
2023-05-14T05:15:02.621Z,17.23
2023-05-14T05:16:02.674Z,17.67
2023-05-14T05:17:02.570Z,18.08
2023-05-14T05:18:02.543Z,18.31
2023-05-14T05:19:02.580Z,18.41
2023-05-14T05:20:02.466Z,18.52
2023-05-14T05:21:02.483Z,18.52
2023-05-14T05:22:02.457Z,18.34
2023-05-14T05:23:02.387Z,17.92
2023-05-14T05:24:02.342Z,17.11
2023-05-14T05:25:02.380Z,16.75
2023-05-14T05:26:02.289Z,16.35
2023-05-14T05:27:02.259Z,16.17
2023-05-14T05:28:02.272Z,16.09
2023-05-14T05:29:02.220Z,16.00
2023-05-14T05:30:02.193Z,15.84
2023-05-14T05:31:02.160Z,15.76
2023-05-14T05:32:02.113Z,15.75
2023-05-14T05:33:02.172Z,15.68
2023-05-14T05:34:02.104Z,15.64
2023-05-14T05:35:02.033Z,15.59
2023-05-14T05:36:02.044Z,15.61
2023-05-14T05:37:01.965Z,15.54
2023-05-14T05:38:02.018Z,15.46
2023-05-14T05:39:01.952Z,15.43
2023-05-14T05:40:01.866Z,15.43
2023-05-14T05:41:01.855Z,15.36
2023-05-14T05:42:01.802Z,15.44
2023-05-14T05:43:01.780Z,15.31
2023-05-14T05:44:01.744Z,15.28
2023-05-14T05:45:01.773Z,15.31
2023-05-14T05:46:01.775Z,15.35
2023-05-14T05:47:01.771Z,15.31
2023-05-14T05:48:01.664Z,15.28
2023-05-14T05:49:01.614Z,15.35
2023-05-14T05:50:01.587Z,15.39
2023-05-14T05:51:01.608Z,15.44
2023-05-14T05:52:01.518Z,15.47
2023-05-14T05:53:01.496Z,15.52
2023-05-14T05:54:01.465Z,15.62
2023-05-14T05:55:01.427Z,15.61
2023-05-14T05:56:01.402Z,15.62
2023-05-14T05:57:01.407Z,15.64
2023-05-14T05:58:01.328Z,15.67
2023-05-14T05:59:01.312Z,15.73
2023-05-14T06:00:01.268Z,15.72
2023-05-14T06:01:01.238Z,15.70
2023-05-14T06:02:01.290Z,15.72
2023-05-14T06:03:01.258Z,15.79
2023-05-14T06:04:01.151Z,15.72
2023-05-14T06:05:01.215Z,15.76
2023-05-14T06:06:01.093Z,15.83
2023-05-14T06:07:01.057Z,15.90
2023-05-14T06:08:01.105Z,15.90
2023-05-14T06:09:01.003Z,16.00
2023-05-14T06:10:01.044Z,16.10
2023-05-14T06:11:00.948Z,16.12
2023-05-14T06:12:00.916Z,16.20
2023-05-14T06:13:00.949Z,16.24
2023-05-14T06:14:00.851Z,16.28
2023-05-14T06:15:00.833Z,16.29
2023-05-14T06:16:00.822Z,16.43
2023-05-14T06:17:00.830Z,16.51
2023-05-14T06:18:00.756Z,16.36
2023-05-14T06:19:00.772Z,16.51
2023-05-14T06:20:00.693Z,16.43
2023-05-14T06:21:00.651Z,16.56
2023-05-14T06:22:00.608Z,16.50
2023-05-14T06:23:00.611Z,16.58
2023-05-14T06:24:00.575Z,16.75
2023-05-14T06:25:00.575Z,16.87
2023-05-14T06:26:00.491Z,16.90
2023-05-14T06:27:00.487Z,17.12
2023-05-14T06:28:00.436Z,17.38
2023-05-14T06:29:00.415Z,17.42
2023-05-14T06:30:00.385Z,17.49
2023-05-14T06:31:00.438Z,17.56
2023-05-14T06:32:00.446Z,17.68
2023-05-14T06:33:00.343Z,17.59
2023-05-14T06:34:00.266Z,17.71
2023-05-14T06:35:00.250Z,17.72
2023-05-14T06:36:00.197Z,17.67
2023-05-14T06:37:00.234Z,17.67
2023-05-14T06:38:00.172Z,17.68
2023-05-14T06:39:00.125Z,17.72
2023-05-14T06:40:00.140Z,17.82
2023-05-14T06:41:00.050Z,17.78
2023-05-14T06:42:00.046Z,17.70
2023-05-14T06:43:00.057Z,17.72
2023-05-14T06:43:59.960Z,17.76
2023-05-14T06:44:59.930Z,17.70
2023-05-14T06:45:59.922Z,17.67
2023-05-14T06:46:59.895Z,17.76
2023-05-14T06:47:59.983Z,17.85
2023-05-14T06:48:59.903Z,17.90
2023-05-14T06:49:59.974Z,17.87
2023-05-14T06:50:59.757Z,17.87
2023-05-14T06:51:59.729Z,18.00
2023-05-14T06:52:59.729Z,17.90
2023-05-14T06:53:59.687Z,17.82
2023-05-14T06:54:59.694Z,17.89
2023-05-14T06:55:59.622Z,17.90
2023-05-14T06:56:59.595Z,18.01
2023-05-14T06:57:59.569Z,18.07
2023-05-14T06:58:59.541Z,18.13
2023-05-14T06:59:59.513Z,18.19
2023-05-14T07:00:59.641Z,18.40
2023-05-14T07:01:59.527Z,18.44
2023-05-14T07:02:59.459Z,18.47
2023-05-14T07:03:59.461Z,18.59
2023-05-14T07:04:59.364Z,18.65
2023-05-14T07:05:59.354Z,18.70
2023-05-14T07:06:59.401Z,18.84
2023-05-14T07:07:59.272Z,18.93
2023-05-14T07:08:59.276Z,18.92
2023-05-14T07:09:59.270Z,19.02
2023-05-14T07:10:59.209Z,19.15
2023-05-14T07:11:59.175Z,19.27
2023-05-14T07:12:59.201Z,19.21
2023-05-14T07:13:59.125Z,19.30
2023-05-14T07:14:59.086Z,19.39
2023-05-14T07:15:59.062Z,19.40
2023-05-14T07:16:59.077Z,19.26
2023-05-14T07:17:59.145Z,19.36
2023-05-14T07:18:59.058Z,19.34
2023-05-14T07:19:58.950Z,19.55
2023-05-14T07:20:58.962Z,19.71
2023-05-14T07:21:58.892Z,19.81
2023-05-14T07:22:58.955Z,19.91
2023-05-14T07:23:58.846Z,20.11
2023-05-14T07:24:58.838Z,20.09
2023-05-14T07:25:58.790Z,20.21
2023-05-14T07:26:58.776Z,20.22
2023-05-14T07:27:58.735Z,20.28
2023-05-14T07:28:58.797Z,20.48
2023-05-14T07:29:58.685Z,20.51
2023-05-14T07:30:58.703Z,20.67
2023-05-14T07:31:58.633Z,20.81
2023-05-14T07:32:58.634Z,20.82
2023-05-14T07:33:58.576Z,20.90
2023-05-14T07:34:58.624Z,20.93
2023-05-14T07:35:58.539Z,20.81
2023-05-14T07:36:58.504Z,20.78
2023-05-14T07:37:58.483Z,20.52
2023-05-14T07:38:58.449Z,20.44
2023-05-14T07:39:58.470Z,20.59
2023-05-14T07:40:58.390Z,20.69
2023-05-14T07:41:58.381Z,20.90
2023-05-14T07:42:58.336Z,21.06
2023-05-14T07:43:58.325Z,21.37
2023-05-14T07:44:58.336Z,21.45
2023-05-14T07:45:58.264Z,21.55
2023-05-14T07:46:58.257Z,21.61
2023-05-14T07:47:58.475Z,21.69
2023-05-14T07:48:58.206Z,21.85
2023-05-14T07:49:58.167Z,21.88
2023-05-14T07:50:58.195Z,22.07
2023-05-14T07:51:58.116Z,22.11
2023-05-14T07:52:58.095Z,22.25
2023-05-14T07:53:58.071Z,22.44
2023-05-14T07:54:58.066Z,22.45
2023-05-14T07:55:58.023Z,22.43
2023-05-14T07:56:58.073Z,22.38
2023-05-14T07:57:58.067Z,22.59
2023-05-14T07:58:57.942Z,22.84
2023-05-14T07:59:57.937Z,22.94
2023-05-14T08:00:57.901Z,23.00
2023-05-14T08:01:57.931Z,23.17
2023-05-14T08:02:58.099Z,23.25
2023-05-14T08:03:57.930Z,23.32
2023-05-14T08:04:57.800Z,23.31
2023-05-14T08:05:57.773Z,23.46
2023-05-14T08:06:57.828Z,23.47
2023-05-14T08:07:57.805Z,23.56
2023-05-14T08:08:57.704Z,23.66
2023-05-14T08:09:57.684Z,23.76
2023-05-14T08:10:57.686Z,23.77
2023-05-14T08:11:57.691Z,23.69
2023-05-14T08:12:57.616Z,23.83
2023-05-14T08:13:57.649Z,23.71
2023-05-14T08:14:57.569Z,23.69
2023-05-14T08:15:57.540Z,23.66
2023-05-14T08:16:57.550Z,23.54
2023-05-14T08:17:57.593Z,23.54
2023-05-14T08:18:57.519Z,23.56
2023-05-14T08:19:57.451Z,23.51
2023-05-14T08:20:57.865Z,23.37
2023-05-14T08:21:57.400Z,23.24
2023-05-14T08:22:57.406Z,23.13
2023-05-14T08:23:57.422Z,23.12
2023-05-14T08:24:57.331Z,23.13
2023-05-14T08:25:57.308Z,23.25
2023-05-14T08:26:57.292Z,23.40
2023-05-14T08:27:57.261Z,23.40
2023-05-14T08:28:57.244Z,23.40
2023-05-14T08:29:57.290Z,23.21
2023-05-14T08:30:57.272Z,23.10
2023-05-14T08:31:57.173Z,23.09
2023-05-14T08:32:57.229Z,23.06
2023-05-14T08:33:57.136Z,23.13
2023-05-14T08:34:57.156Z,23.08
2023-05-14T08:35:57.183Z,23.13
2023-05-14T08:36:57.061Z,23.05
2023-05-14T08:37:57.033Z,22.90
2023-05-14T08:38:57.024Z,22.80
2023-05-14T08:39:57.005Z,22.68
2023-05-14T08:40:56.978Z,22.62
2023-05-14T08:41:56.995Z,22.50
2023-05-14T08:42:56.923Z,22.45
2023-05-14T08:43:56.891Z,22.32
2023-05-14T08:44:56.884Z,22.22
2023-05-14T08:45:56.863Z,22.22
2023-05-14T08:46:56.817Z,22.13
2023-05-14T08:47:56.963Z,22.06
2023-05-14T08:48:56.834Z,21.89
2023-05-14T08:49:56.756Z,21.72
2023-05-14T08:50:56.723Z,21.73
2023-05-14T08:51:56.695Z,21.60
2023-05-14T08:52:56.674Z,21.60
2023-05-14T08:53:56.772Z,21.62
2023-05-14T08:54:56.633Z,21.57
2023-05-14T08:55:56.625Z,21.58
2023-05-14T08:56:56.582Z,21.46
2023-05-14T08:57:56.622Z,21.32
2023-05-14T08:58:56.527Z,21.27
2023-05-14T08:59:56.579Z,21.25
2023-05-14T09:00:56.473Z,21.17
2023-05-14T09:01:56.481Z,21.03
2023-05-14T09:02:56.473Z,21.22
2023-05-14T09:03:56.423Z,21.17
2023-05-14T09:04:56.398Z,21.07
2023-05-14T09:06:00.002Z,21.05
2023-05-14T09:06:56.317Z,20.95
2023-05-14T09:07:56.306Z,21.02
2023-05-14T09:08:56.282Z,21.06
2023-05-14T09:09:56.320Z,21.27
2023-05-14T09:10:56.232Z,21.51
2023-05-14T09:11:56.259Z,21.58
2023-05-14T09:12:56.182Z,21.66
2023-05-14T09:13:56.145Z,21.88
2023-05-14T09:14:56.121Z,22.06
2023-05-14T09:15:56.226Z,22.14
2023-05-14T09:16:56.215Z,22.38
2023-05-14T09:17:56.065Z,22.59
2023-05-14T09:18:56.052Z,22.75
2023-05-14T09:19:56.016Z,22.72
2023-05-14T09:20:55.992Z,22.84
2023-05-14T09:21:55.998Z,22.80
2023-05-14T09:22:55.929Z,22.68
2023-05-14T09:23:55.893Z,22.73
2023-05-14T09:24:55.877Z,22.72
2023-05-14T09:25:55.842Z,22.68
2023-05-14T09:26:55.855Z,22.73
2023-05-14T09:27:58.516Z,22.87
2023-05-14T09:28:55.781Z,22.99
2023-05-14T09:29:55.751Z,23.20
2023-05-14T09:30:55.726Z,23.34
2023-05-14T09:31:56.520Z,23.23
2023-05-14T09:32:55.835Z,23.09
2023-05-14T09:33:55.659Z,22.91
2023-05-14T09:34:55.627Z,22.66
2023-05-14T09:35:57.646Z,22.65
2023-05-14T09:36:55.588Z,22.47
2023-05-14T09:37:55.575Z,22.36
2023-05-14T09:38:55.644Z,22.29
2023-05-14T09:39:55.521Z,22.43
2023-05-14T09:40:55.485Z,22.57
2023-05-14T09:41:55.462Z,22.83
2023-05-14T09:42:55.424Z,23.03
2023-05-14T09:43:55.413Z,23.18
2023-05-14T09:44:55.475Z,23.31
2023-05-14T09:45:55.359Z,23.27
2023-05-14T09:46:55.372Z,23.24
2023-05-14T09:47:55.514Z,23.34
2023-05-14T09:48:55.305Z,23.36
2023-05-14T09:49:55.274Z,23.47
2023-05-14T09:50:55.350Z,23.37
2023-05-14T09:51:55.292Z,23.40
2023-05-14T09:52:55.199Z,23.34
2023-05-14T09:53:55.153Z,23.39
2023-05-14T09:54:55.134Z,23.34
2023-05-14T09:55:55.120Z,23.37
2023-05-14T09:56:55.975Z,23.46
2023-05-14T09:58:03.134Z,23.41
2023-05-14T09:58:55.037Z,23.50
2023-05-14T09:59:55.049Z,23.68
2023-05-14T10:00:55.024Z,23.65
2023-05-14T10:01:55.033Z,23.83
2023-05-14T10:02:55.021Z,23.98
2023-05-14T10:03:54.962Z,24.16
2023-05-14T10:04:54.995Z,24.39
2023-05-14T10:05:54.882Z,24.60
2023-05-14T10:06:54.910Z,24.61
2023-05-14T10:07:54.855Z,24.69
2023-05-14T10:08:54.822Z,24.68
2023-05-14T10:09:55.175Z,24.53
2023-05-14T10:10:54.753Z,24.53
2023-05-14T10:11:54.786Z,24.73
2023-05-14T10:12:58.540Z,24.91
2023-05-14T10:13:54.699Z,24.91
2023-05-14T10:14:54.700Z,24.77
2023-05-14T10:15:54.678Z,24.78
2023-05-14T10:16:54.726Z,24.84
2023-05-14T10:17:54.641Z,24.91
2023-05-14T10:18:56.988Z,24.91
2023-05-14T10:19:54.568Z,24.77
2023-05-14T10:20:54.521Z,24.63
2023-05-14T10:21:54.513Z,24.47
2023-05-14T10:22:54.555Z,24.43
2023-05-14T10:23:54.474Z,24.54
2023-05-14T10:24:54.497Z,24.81
2023-05-14T10:25:54.433Z,24.81
2023-05-14T10:26:54.388Z,24.76
2023-05-14T10:27:54.505Z,24.69
2023-05-14T10:28:54.344Z,24.73
2023-05-14T10:29:54.314Z,24.76
2023-05-14T10:30:54.345Z,24.91
2023-05-14T10:31:54.283Z,25.04
2023-05-14T10:32:54.374Z,25.04
2023-05-14T10:33:54.231Z,25.08
2023-05-14T10:34:54.212Z,25.03
2023-05-14T10:35:54.179Z,24.88
2023-05-14T10:36:54.172Z,24.85
2023-05-14T10:37:54.201Z,24.74
2023-05-14T10:38:54.118Z,24.58
2023-05-14T10:39:54.170Z,24.47
2023-05-14T10:41:00.045Z,24.21
2023-05-14T10:41:54.051Z,24.17
2023-05-14T10:42:54.076Z,24.18
2023-05-14T10:43:53.997Z,24.11
2023-05-14T10:44:54.039Z,23.91
2023-05-14T10:45:53.985Z,23.59
2023-05-14T10:46:54.009Z,23.37
2023-05-14T10:47:54.076Z,23.09
2023-05-14T10:48:53.892Z,23.03
2023-05-14T10:49:53.913Z,22.83
2023-05-14T10:50:53.979Z,22.73
2023-05-14T10:51:53.905Z,22.51
2023-05-14T10:52:53.848Z,22.22
2023-05-14T10:53:53.759Z,22.00
2023-05-14T10:54:53.752Z,21.83
2023-05-14T10:55:53.716Z,21.64
2023-05-14T10:56:53.690Z,21.58
2023-05-14T10:57:53.669Z,21.43
2023-05-14T10:58:53.697Z,21.20
2023-05-14T10:59:53.612Z,21.22
2023-05-14T11:00:53.591Z,21.09
2023-05-14T11:01:53.619Z,20.97
2023-05-14T11:02:53.609Z,20.90
2023-05-14T11:03:53.602Z,20.85
2023-05-14T11:04:53.564Z,20.80
2023-05-14T11:05:53.481Z,20.69
2023-05-14T11:06:53.435Z,20.77
2023-05-14T11:07:53.409Z,20.67
2023-05-14T11:08:53.397Z,20.65
2023-05-14T11:09:53.369Z,20.63
2023-05-14T11:10:53.406Z,20.63
2023-05-14T11:11:53.310Z,20.51
2023-05-14T11:12:53.294Z,20.44
2023-05-14T11:13:53.267Z,20.39
2023-05-14T11:14:53.245Z,20.31
2023-05-14T11:15:53.218Z,20.29
2023-05-14T11:16:53.281Z,20.32
2023-05-14T11:17:53.202Z,20.26
2023-05-14T11:18:53.142Z,20.24
2023-05-14T11:19:53.116Z,20.16
2023-05-14T11:20:53.082Z,20.21
2023-05-14T11:21:53.070Z,20.26
2023-05-14T11:22:53.093Z,20.11
2023-05-14T11:23:53.018Z,20.11
2023-05-14T11:24:52.961Z,20.16
2023-05-14T11:25:53.024Z,20.18
2023-05-14T11:26:52.918Z,20.19
2023-05-14T11:27:52.891Z,20.37
2023-05-14T11:28:52.986Z,20.37
2023-05-14T11:29:52.835Z,20.55
2023-05-14T11:30:52.821Z,20.58
2023-05-14T11:31:52.823Z,20.56
2023-05-14T11:32:52.855Z,20.81
2023-05-14T11:33:52.722Z,20.82
2023-05-14T11:34:52.746Z,21.06
2023-05-14T11:35:52.703Z,21.18
2023-05-14T11:36:52.648Z,21.32
2023-05-14T11:37:52.680Z,21.58
2023-05-14T11:38:52.792Z,21.66
2023-05-14T11:39:52.569Z,21.92
2023-05-14T11:40:52.592Z,21.93
2023-05-14T11:41:52.538Z,21.93
2023-05-14T11:42:52.502Z,22.11
2023-05-14T11:43:52.462Z,22.13
2023-05-14T11:44:52.439Z,22.26
2023-05-14T11:45:52.532Z,22.39
2023-05-14T11:46:52.444Z,22.35
2023-05-14T11:47:52.482Z,22.41
2023-05-14T11:48:52.341Z,22.38
2023-05-14T11:49:52.309Z,22.44
2023-05-14T11:50:52.416Z,22.35
2023-05-14T11:51:52.258Z,22.32
2023-05-14T11:52:52.284Z,22.30
2023-05-14T11:53:52.272Z,22.38
2023-05-14T11:54:52.179Z,22.44
2023-05-14T11:55:52.179Z,22.68
2023-05-14T11:56:52.123Z,22.80
2023-05-14T11:57:52.177Z,22.99
2023-05-14T11:58:52.080Z,23.10
2023-05-14T11:59:52.042Z,23.32
2023-05-14T12:00:52.047Z,23.48
2023-05-14T12:01:51.989Z,23.50
2023-05-14T12:02:52.051Z,23.28
2023-05-14T12:03:52.136Z,23.31
2023-05-14T12:04:51.958Z,23.03
2023-05-14T12:05:51.905Z,23.13
2023-05-14T12:06:51.880Z,23.28
2023-05-14T12:07:51.858Z,23.40
2023-05-14T12:08:51.821Z,23.55
2023-05-14T12:09:51.869Z,23.63
2023-05-14T12:10:51.800Z,23.71
2023-05-14T12:11:52.664Z,23.65
2023-05-14T12:12:51.716Z,23.61
2023-05-14T12:13:51.728Z,23.66
2023-05-14T12:14:51.676Z,23.71
2023-05-14T12:15:51.750Z,23.73
2023-05-14T12:16:51.651Z,23.86
2023-05-14T12:17:51.680Z,23.71
2023-05-14T12:18:51.648Z,23.73
2023-05-14T12:19:51.557Z,23.76
2023-05-14T12:20:51.570Z,23.76
2023-05-14T12:21:51.592Z,23.71
2023-05-14T12:22:51.486Z,23.58
2023-05-14T12:23:51.468Z,23.37
2023-05-14T12:24:51.439Z,23.31
2023-05-14T12:25:51.409Z,23.10
2023-05-14T12:26:51.409Z,23.13
2023-05-14T12:27:51.431Z,23.10
2023-05-14T12:28:51.368Z,23.06
2023-05-14T12:29:51.314Z,22.93
2023-05-14T12:30:51.287Z,22.80
2023-05-14T12:31:56.169Z,22.87
2023-05-14T12:32:51.747Z,22.81
2023-05-14T12:33:51.278Z,22.69
2023-05-14T12:34:51.209Z,22.75
2023-05-14T12:35:51.176Z,22.51
2023-05-14T12:36:51.162Z,22.41
2023-05-14T12:37:51.177Z,22.38
2023-05-14T12:38:51.106Z,22.29
2023-05-14T12:39:51.139Z,22.15
2023-05-14T12:40:51.049Z,22.04
2023-05-14T12:41:51.042Z,22.00
2023-05-14T12:42:51.010Z,22.04
2023-05-14T12:43:50.987Z,21.99
2023-05-14T12:44:50.956Z,21.83
2023-05-14T12:45:51.244Z,21.91
2023-05-14T12:46:50.961Z,21.92
2023-05-14T12:47:50.939Z,22.08
2023-05-14T12:48:53.234Z,22.13
2023-05-14T12:49:50.837Z,22.30
2023-05-14T12:50:50.808Z,22.41
2023-05-14T12:51:54.806Z,22.47
2023-05-14T12:52:50.754Z,22.60
2023-05-14T12:53:50.734Z,22.80
2023-05-14T12:54:50.705Z,22.73
2023-05-14T12:55:50.684Z,22.60
2023-05-14T12:56:50.655Z,22.62